EST,Max TemperatureF,Mean TemperatureF,Min TemperatureF,Max Dew PointF,MeanDew PointF,Min DewpointF,Max Humidity, Mean Humidity, Min Humidity, Max Sea Level PressureIn, Mean Sea Level PressureIn, Min Sea Level PressureIn, Max VisibilityMiles, Mean VisibilityMiles, Min VisibilityMiles, Max Wind SpeedMPH, Mean Wind SpeedMPH, Max Gust SpeedMPH,PrecipitationIn, CloudCover, Events, WindDirDegrees
2014-1-1,51,44,37,39,37,35,92,74,61,30.39,30.30,30.16,10,9,4,7,2,9,T,4,Rain,54
2014-1-2,53,48,42,50,45,32,96,88,65,30.14,29.84,29.69,10,6,2,24,5,34,0.53,8,Rain,240
2014-1-3,42,34,26,31,14,6,68,47,25,30.45,30.23,29.84,10,10,9,28,11,39,T,1,Rain,351
2014-1-4,43,35,26,28,21,14,70,56,43,30.48,30.38,30.23,10,10,10,12,7,15,0.00,6,,46
2014-1-5,54,46,38,49,40,28,89,77,64,30.21,30.05,29.83,10,9,7,9,4,12,T,8,,41
2014-1-6,61,41,21,57,33,-3,93,64,26,30.33,29.94,29.74,10,9,3,28,17,44,0.04,4,Rain,275
2014-1-7,29,22,14,13,2,-2,68,45,29,30.55,30.48,30.33,10,10,10,18,6,24,0.00,0,,291
2014-1-8,45,31,17,21,13,6,84,55,20,30.61,30.54,30.51,10,10,7,9,2,12,0.00,0,,56
2014-1-9,58,46,33,39,27,14,59,46,32,30.54,30.46,30.38,10,10,10,13,6,16,T,6,Rain,54
2014-1-10,66,58,49,61,52,39,93,88,59,30.35,30.19,30.08,10,7,1,10,3,14,0.19,8,Rain,33
2014-1-11,71,64,56,66,60,50,100,90,79,30.04,29.83,29.72,10,6,0,30,10,39,0.68,7,Fog-Rain,222
2014-1-12,61,50,38,44,36,30,85,61,32,30.22,30.09,29.84,10,10,10,17,6,23,0.00,0,,286
2014-1-13,64,49,33,50,40,31,96,73,36,30.21,30.11,29.92,10,10,6,13,3,17,0.13,1,Rain,184
2014-1-14,64,52,40,54,50,38,96,85,43,30.01,29.88,29.81,10,8,2,16,6,23,0.17,5,Rain,242
2014-1-15,63,49,34,42,34,28,92,72,27,30.01,29.95,29.86,10,7,0,15,5,21,0.01,1,Fog,261
2014-1-16,48,41,34,26,24,21,62,52,34,30.10,30.02,29.94,10,10,10,14,7,18,0.00,2,,280
2014-1-17,60,46,31,35,26,14,69,50,22,30.10,30.01,29.91,10,10,10,23,9,29,0.00,1,,233
2014-1-18,47,40,32,19,15,12,56,40,25,30.16,30.09,29.98,10,10,10,22,11,30,0.00,0,,270
2014-1-19,59,45,31,30,25,19,70,48,30,30.08,30.04,29.99,10,10,10,21,8,27,0.00,2,,238
2014-1-20,68,51,34,28,24,16,70,42,14,30.03,29.96,29.89,10,10,10,21,9,28,0.00,0,,233
2014-1-21,63,51,39,41,29,19,79,50,26,29.87,29.74,29.57,10,10,10,31,13,42,T,1,Rain,249
2014-1-22,42,35,27,23,15,10,69,48,28,30.14,30.03,29.86,10,10,10,17,7,22,0.00,0,,281
2014-1-23,44,35,25,14,8,5,55,35,20,30.38,30.28,30.15,10,10,10,13,6,18,0.00,0,,281
2014-1-24,36,27,17,9,-2,-13,56,31,13,30.63,30.48,30.35,10,10,10,17,7,24,0.00,1,,7
2014-1-25,53,34,14,17,11,3,73,42,20,30.31,30.02,29.80,10,10,10,29,11,38,T,1,Rain,235
2014-1-26,56,43,29,30,24,16,69,46,27,30.03,29.97,29.93,10,10,10,20,8,23,0.00,0,,232
2014-1-27,69,55,41,45,38,30,77,56,32,29.99,29.92,29.83,10,10,4,20,7,26,T,2,Rain,236
2014-1-28,51,40,28,40,22,2,85,67,21,30.22,30.15,29.99,10,8,4,20,11,27,0.21,7,Rain,28
2014-1-29,29,27,24,24,21,17,88,78,63,30.37,30.25,30.15,10,7,1,14,6,17,0.11,5,Rain-Snow,19
2014-1-30,39,29,19,22,15,11,81,60,35,30.41,30.32,30.21,10,10,10,15,5,17,0.00,0,,43
2014-1-31,57,40,22,26,18,10,88,55,18,30.27,30.21,30.16,10,10,10,8,0,9,0.00,0,,150